createdAt,value
2023-04-28T00:05:12.137Z,30.3
2023-04-28T00:11:03.843Z,30.3
2023-04-28T00:16:55.514Z,30.3
2023-04-28T00:22:47.367Z,30.3
2023-04-28T00:28:43.403Z,30.2
2023-04-28T00:34:35.069Z,30.2
2023-04-28T00:40:26.652Z,30.2
2023-04-28T00:46:02.563Z,30.1
2023-04-28T00:51:38.610Z,30.1
2023-04-28T00:57:29.601Z,30.1
2023-04-28T01:03:06.610Z,30.1
2023-04-28T01:08:44.552Z,30.1
2023-04-28T01:14:36.342Z,30.1
2023-04-28T01:20:28.147Z,30.1
2023-04-28T01:26:19.083Z,30
2023-04-28T01:32:10.366Z,30
2023-04-28T01:38:01.941Z,29.9
2023-04-28T01:43:53.316Z,29.9
2023-04-28T01:49:45.356Z,29.9
2023-04-28T01:55:37.774Z,29.9
2023-04-28T02:01:30.250Z,29.9
2023-04-28T02:07:22.605Z,29.9
2023-04-28T02:13:14.065Z,29.9
2023-04-28T02:18:51.028Z,29.8
2023-04-28T02:24:29.169Z,29.8
2023-04-28T02:30:05.429Z,29.7
2023-04-28T02:35:56.994Z,29.7
2023-04-28T02:41:48.014Z,29.6
2023-04-28T02:47:39.656Z,29.6
2023-04-28T02:53:15.794Z,29.6
2023-04-28T02:59:07.892Z,29.6
2023-04-28T03:05:01.515Z,29.5
2023-04-28T03:10:37.946Z,29.5
2023-04-28T03:15:59.411Z,29.5
2023-04-28T03:21:35.593Z,29.4
2023-04-28T03:27:21.061Z,29.4
2023-04-28T03:32:56.478Z,29.4
2023-04-28T03:38:33.319Z,29.4
2023-04-28T03:44:26.911Z,29.4
2023-04-28T03:50:18.264Z,29.4
2023-04-28T03:56:09.379Z,29.4
2023-04-28T04:02:01.022Z,29.4
2023-04-28T04:13:32.584Z,29.3
2023-04-28T04:19:25.371Z,29.3
2023-04-28T04:25:16.651Z,29.3
2023-04-28T04:31:08.095Z,29.3
2023-04-28T04:37:00.360Z,29.3
2023-04-28T04:43:05.921Z,29.3
2023-04-28T04:49:00.635Z,29.2
2023-04-28T04:54:54.986Z,29.1
2023-04-28T05:00:46.221Z,29.2
2023-04-28T05:06:54.919Z,29.1
2023-04-28T05:12:48.908Z,29.1
2023-04-28T05:18:41.662Z,29.1
2023-04-28T05:24:33.685Z,29.1
2023-04-28T05:30:25.518Z,29.1
2023-04-28T05:36:17.392Z,29
2023-04-28T05:42:09.300Z,29
2023-04-28T05:48:13.477Z,29
2023-04-28T05:54:05.308Z,28.9
2023-04-28T06:00:05.017Z,29
2023-04-28T06:05:45.210Z,28.9
2023-04-28T06:11:21.324Z,32.3
2023-04-28T06:16:57.728Z,31.3
2023-04-28T06:22:33.952Z,30.9
2023-04-28T06:27:56.095Z,30.8
2023-04-28T06:33:32.425Z,38.5
2023-04-28T06:38:55.203Z,37.8
2023-04-28T06:44:00.596Z,38.3
2023-04-28T06:49:24.835Z,39.1
2023-04-28T06:54:51.337Z,39.9
2023-04-28T07:00:44.076Z,40.6
2023-04-28T07:06:38.843Z,41.4
2023-04-28T07:12:33.118Z,42.2
2023-04-28T07:18:25.094Z,42.9
2023-04-28T07:24:16.580Z,43.8
2023-04-28T07:30:18.920Z,44.6
2023-04-28T07:36:20.221Z,45.4
2023-04-28T07:42:14.129Z,46.1
2023-04-28T07:48:06.593Z,46.7
2023-04-28T07:53:42.853Z,47.4
2023-04-28T07:59:34.430Z,48.1
2023-04-28T08:05:30.314Z,48.7
2023-04-28T08:11:21.189Z,49.3
2023-04-28T08:16:58.154Z,50
2023-04-28T08:22:52.566Z,50.7
2023-04-28T08:28:46.546Z,51.2
2023-04-28T08:34:07.681Z,51.6
2023-04-28T08:39:46.583Z,52.1
2023-04-28T08:45:24.023Z,52.4
2023-04-28T08:50:45.412Z,52.9
2023-04-28T08:56:37.988Z,53.3
2023-04-28T09:01:59.295Z,53.9
2023-04-28T09:07:39.203Z,54.4
2023-04-28T09:13:02.208Z,54.8
2023-04-28T09:18:23.685Z,55.1
2023-04-28T09:24:33.600Z,55.6
2023-04-28T09:30:09.311Z,56
2023-04-28T09:35:31.265Z,56.4
2023-04-28T09:41:09.648Z,56.7
2023-04-28T09:46:47.121Z,57.1
2023-04-28T09:52:38.472Z,57.4
2023-04-28T09:58:30.184Z,57.8
2023-04-28T10:06:19.963Z,58.3
2023-04-28T10:12:11.674Z,58.7
2023-04-28T10:17:48.171Z,58.8
2023-04-28T10:23:39.227Z,59.1
2023-04-28T10:29:32.781Z,59.5
2023-04-28T10:35:37.226Z,59.7
2023-04-28T10:41:37.871Z,59.9
2023-04-28T10:47:34.683Z,60.1
2023-04-28T10:53:39.719Z,60.3
2023-04-28T10:59:43.260Z,60.3
2023-04-28T11:05:37.205Z,60.4
2023-04-28T11:11:28.687Z,60.6
2023-04-28T11:17:22.167Z,60.8
2023-04-28T11:22:58.304Z,61
2023-04-28T11:28:49.723Z,61.3
2023-04-28T11:34:41.143Z,61.5
2023-04-28T11:40:33.847Z,61.6
2023-04-28T11:46:32.462Z,61.6
2023-04-28T11:52:25.358Z,61.8
2023-04-28T11:58:17.221Z,61.7
2023-04-28T12:04:12.532Z,61.6
2023-04-28T12:10:07.088Z,61.4
2023-04-28T12:16:15.553Z,61.4
2023-04-28T12:22:08.499Z,61.4
2023-04-28T12:27:44.110Z,61.3
2023-04-28T12:33:36.615Z,60.9
2023-04-28T12:39:29.186Z,60.8
2023-04-28T12:45:21.496Z,60.7
2023-04-28T12:51:14.609Z,60.4
2023-04-28T12:56:51.097Z,60.3
2023-04-28T13:02:42.916Z,59.9
2023-04-28T13:08:36.793Z,59.5
2023-04-28T13:14:39.296Z,59.1
2023-04-28T13:20:31.428Z,58.7
2023-04-28T13:26:10.163Z,58.3
2023-04-28T13:31:46.850Z,57.9
2023-04-28T13:37:37.631Z,57.5
2023-04-28T13:43:30.759Z,57.1
2023-04-28T13:49:22.354Z,56.6
2023-04-28T13:55:13.404Z,56.1
2023-04-28T14:01:05.236Z,55.5
2023-04-28T14:06:55.593Z,55
2023-04-28T14:12:49.361Z,54.3
2023-04-28T14:18:52.344Z,53.6
2023-04-28T14:24:43.507Z,52.9
2023-04-28T14:30:35.093Z,52.3
2023-04-28T14:36:27.282Z,51.7
2023-04-28T14:42:04.199Z,49.9
2023-04-28T14:47:56.281Z,47.3
2023-04-28T14:53:48.043Z,45.7
2023-04-28T14:59:41.966Z,44.6
2023-04-28T15:05:35.874Z,43.8
2023-04-28T15:11:15.232Z,43.1
2023-04-28T15:17:07.571Z,42.6
2023-04-28T15:23:00.243Z,42.2
2023-04-28T15:28:52.466Z,41.8
2023-04-28T15:34:46.068Z,41.6
2023-04-28T15:40:41.113Z,41.4
2023-04-28T15:46:32.855Z,41.2
2023-04-28T15:52:25.454Z,41
2023-04-28T15:58:17.551Z,40.9
2023-04-28T16:04:11.186Z,40.8
2023-04-28T16:10:03.388Z,40.6
2023-04-28T16:15:55.734Z,40.4
2023-04-28T16:21:48.135Z,40.3
2023-04-28T16:27:26.487Z,40.1
2023-04-28T16:33:19.148Z,40
2023-04-28T16:39:11.504Z,39.9
2023-04-28T16:45:04.189Z,39.7
2023-04-28T16:50:57.512Z,39.6
2023-04-28T16:56:50.109Z,39.5
2023-04-28T17:02:42.221Z,39.4
2023-04-28T17:08:05.017Z,39.3
2023-04-28T17:13:59.274Z,39.2
2023-04-28T17:19:52.070Z,39.1
2023-04-28T17:25:44.240Z,38.9
2023-04-28T17:31:39.013Z,38.9
2023-04-28T17:37:31.421Z,38.8
2023-04-28T17:43:22.926Z,38.7
2023-04-28T17:49:15.479Z,38.6
2023-04-28T17:55:09.379Z,38.6
2023-04-28T18:01:01.173Z,38.5
2023-04-28T18:06:57.247Z,38.4
2023-04-28T18:12:51.000Z,38.3
2023-04-28T18:18:47.106Z,38.3
2023-04-28T18:24:38.959Z,38.2
2023-04-28T18:30:31.024Z,38.1
2023-04-28T18:36:26.428Z,38
2023-04-28T18:42:18.537Z,37.9
2023-04-28T18:48:13.676Z,37.8
2023-04-28T18:54:05.345Z,37.8
2023-04-28T18:59:57.276Z,37.7
2023-04-28T19:05:51.103Z,37.6
2023-04-28T19:11:32.192Z,37.4
2023-04-28T19:17:24.082Z,37.4
2023-04-28T19:23:16.121Z,37.4
2023-04-28T19:29:08.314Z,37.3
2023-04-28T19:35:01.088Z,37.3
2023-04-28T19:40:53.242Z,37.2
2023-04-28T19:46:46.294Z,37.1
2023-04-28T19:52:38.882Z,37.1
2023-04-28T19:58:16.108Z,37.1
2023-04-28T20:03:56.947Z,37
2023-04-28T20:09:51.360Z,36.9
2023-04-28T20:15:27.586Z,36.9
2023-04-28T20:21:19.572Z,36.9
2023-04-28T20:27:11.437Z,36.9
2023-04-28T20:33:04.492Z,36.8
2023-04-28T20:38:56.211Z,36.8
2023-04-28T20:44:47.755Z,36.8
2023-04-28T20:50:42.160Z,36.7
2023-04-28T20:56:34.957Z,36.7
2023-04-28T21:02:27.319Z,36.6
2023-04-28T21:08:21.043Z,36.6
2023-04-28T21:14:11.900Z,36.6
2023-04-28T21:20:03.595Z,36.5
2023-04-28T21:25:40.141Z,36.5
2023-04-28T21:31:31.160Z,36.4
2023-04-28T21:37:23.310Z,36.4
2023-04-28T21:42:59.336Z,36.4
2023-04-28T21:54:11.973Z,36.3
2023-04-28T22:00:03.797Z,36.3
2023-04-28T22:05:42.474Z,36.3
2023-04-28T22:11:34.091Z,36.2
2023-04-28T22:17:41.691Z,36.2
2023-04-28T22:23:33.649Z,36.1
2023-04-28T22:29:24.882Z,36.1
2023-04-28T22:35:00.914Z,36.1
2023-04-28T22:40:37.075Z,36.1
2023-04-28T22:46:13.027Z,36
2023-04-28T22:52:04.461Z,36
2023-04-28T22:57:58.704Z,35.9
2023-04-28T23:03:35.954Z,35.9
2023-04-28T23:09:29.011Z,35.9
2023-04-28T23:15:04.897Z,35.9
2023-04-28T23:20:59.250Z,35.8
2023-04-28T23:26:35.309Z,35.8
2023-04-28T23:32:11.349Z,35.8
2023-04-28T23:37:47.641Z,35.7
2023-04-28T23:43:24.241Z,35.7
2023-04-28T23:49:15.958Z,35.7
2023-04-28T23:55:06.576Z,35.6
